Time;durP1;ratioP1;P1;durP2;ratioP2;P2;SDS_P1;SDS_P2;PMS_P1;PMS_P2;Temp;Humidity;BMP_temperature;BMP_pressure;BME280_temperature;BME280_humidity;BME280_pressure;Samples;Min_cycle;Max_cycle;Signal;HPM_P1;HPM_P2
2023/10/15 00:00:29;;;;;;;10.00;9.70;;;10.00;99.90;;;;;;5124950;22;20267;-77
2023/10/15 00:02:56;;;;;;;10.03;9.73;;;10.00;99.90;;;;;;5116432;28;20252;-78
2023/10/15 00:05:26;;;;;;;10.00;9.70;;;10.10;99.90;;;;;;5118174;28;20228;-77
2023/10/15 00:07:54;;;;;;;10.20;9.90;;;10.10;99.90;;;;;;5116502;28;20225;-78
2023/10/15 00:10:25;;;;;;;10.10;9.80;;;10.20;99.90;;;;;;5112119;28;20251;-77
2023/10/15 00:12:54;;;;;;;9.90;9.60;;;10.20;99.90;;;;;;5102176;28;20325;-77
2023/10/15 00:15:27;;;;;;;10.00;9.70;;;10.30;99.90;;;;;;5101439;28;20312;-78
2023/10/15 00:17:58;;;;;;;10.07;9.77;;;10.20;99.90;;;;;;5101828;28;20209;-77
2023/10/15 00:20:31;;;;;;;9.83;9.53;;;10.20;99.90;;;;;;5101448;27;20230;-77
2023/10/15 00:23:04;;;;;;;9.90;9.60;;;10.20;99.90;;;;;;5101669;28;20233;-77
2023/10/15 00:25:35;;;;;;;10.10;9.80;;;10.10;99.90;;;;;;5102236;28;20222;-77
2023/10/15 00:28:05;;;;;;;10.00;9.70;;;10.10;99.90;;;;;;5101502;28;20320;-77
2023/10/15 00:30:34;;;;;;;9.77;9.47;;;10.00;99.90;;;;;;5101417;28;20240;-78
2023/10/15 00:33:06;;;;;;;9.93;9.63;;;9.90;99.90;;;;;;5101089;28;20757;-78
2023/10/15 00:35:35;;;;;;;10.10;9.80;;;9.90;99.90;;;;;;5102151;28;20233;-78
2023/10/15 00:38:07;;;;;;;9.80;9.50;;;9.80;99.90;;;;;;5102728;28;20225;-78
2023/10/15 00:40:38;;;;;;;10.00;9.70;;;9.70;99.90;;;;;;5102452;28;20244;-78
2023/10/15 00:43:05;;;;;;;10.00;9.70;;;9.70;99.90;;;;;;5101714;28;20293;-79
2023/10/15 00:45:43;;;;;;;10.13;9.83;;;9.60;99.90;;;;;;5101497;28;20259;-77
2023/10/15 00:48:19;;;;;;;10.10;9.80;;;9.60;99.90;;;;;;5101523;28;20213;-77
2023/10/15 00:50:51;;;;;;;10.13;9.83;;;9.50;99.90;;;;;;5101088;28;20231;-79
2023/10/15 00:53:26;;;;;;;9.90;9.60;;;9.50;99.90;;;;;;5101605;28;20229;-78
2023/10/15 00:55:55;;;;;;;10.13;9.83;;;9.50;99.90;;;;;;5101755;28;20244;-79
2023/10/15 00:58:31;;;;;;;10.17;9.87;;;9.50;99.90;;;;;;5101720;28;20229;-79
2023/10/15 01:01:19;;;;;;;10.40;10.10;;;9.50;99.90;;;;;;5109714;27;20236;-79
2023/10/15 01:03:50;;;;;;;10.20;9.90;;;9.50;99.90;;;;;;5122875;27;20224;-79
2023/10/15 01:06:29;;;;;;;10.20;9.90;;;9.40;99.90;;;;;;5122927;27;20291;-78
2023/10/15 01:08:58;;;;;;;10.20;9.90;;;9.40;99.90;;;;;;5123047;28;20228;-78
2023/10/15 01:11:28;;;;;;;10.40;10.10;;;9.30;99.90;;;;;;5122775;27;20240;-79
2023/10/15 01:13:55;;;;;;;10.50;10.20;;;9.20;99.90;;;;;;5123297;28;20238;-80
2023/10/15 01:16:27;;;;;;;10.50;10.20;;;9.10;99.90;;;;;;5123035;27;20331;-79
2023/10/15 01:19:00;;;;;;;10.30;10.00;;;9.10;99.90;;;;;;5123056;28;20209;-79
2023/10/15 01:21:30;;;;;;;10.30;10.00;;;9.10;99.90;;;;;;5123671;28;20232;-80
2023/10/15 01:24:07;;;;;;;10.30;10.00;;;9.10;99.90;;;;;;5122184;28;20224;-79
2023/10/15 01:26:39;;;;;;;10.30;10.00;;;9.00;99.90;;;;;;5123475;28;20268;-80
2023/10/15 01:29:09;;;;;;;10.27;9.97;;;9.10;99.90;;;;;;5123282;28;20235;-80
2023/10/15 01:31:50;;;;;;;10.30;10.00;;;9.00;99.90;;;;;;5122930;28;20220;-79
2023/10/15 01:34:21;;;;;;;10.30;10.00;;;8.90;99.90;;;;;;5123514;27;20229;-78
2023/10/15 01:36:49;;;;;;;10.37;10.07;;;8.90;99.90;;;;;;5123593;28;20228;-79
2023/10/15 01:39:22;;;;;;;10.27;9.97;;;8.80;99.90;;;;;;5123429;28;20228;-79
2023/10/15 01:41:53;;;;;;;10.50;10.20;;;8.80;99.90;;;;;;5122404;28;20236;-78
2023/10/15 01:44:20;;;;;;;10.30;10.00;;;8.80;99.90;;;;;;5123495;28;20254;-79
2023/10/15 01:46:48;;;;;;;10.20;9.90;;;8.70;99.90;;;;;;5122741;27;20240;-79
2023/10/15 01:49:31;;;;;;;10.37;10.07;;;8.60;99.90;;;;;;5122896;27;20235;-79
2023/10/15 01:52:05;;;;;;;10.50;10.20;;;8.50;99.90;;;;;;5121797;27;20237;-79
2023/10/15 01:54:34;;;;;;;10.40;10.10;;;8.60;99.90;;;;;;5122757;27;20228;-79
2023/10/15 01:57:06;;;;;;;10.57;10.27;;;8.50;99.90;;;;;;5123077;27;20307;-79
2023/10/15 01:59:45;;;;;;;10.40;10.10;;;8.40;99.90;;;;;;5123081;28;20308;-81
2023/10/15 02:02:14;;;;;;;10.50;10.20;;;8.30;99.90;;;;;;5122310;28;20240;-79
2023/10/15 02:04:45;;;;;;;10.30;10.00;;;8.20;99.90;;;;;;5123164;28;20232;-79
2023/10/15 02:07:19;;;;;;;10.43;10.13;;;8.20;99.90;;;;;;5123270;27;20319;-78
2023/10/15 02:09:47;;;;;;;10.47;10.17;;;8.10;99.90;;;;;;5123382;28;20242;-78
2023/10/15 02:12:18;;;;;;;10.40;10.10;;;8.10;99.90;;;;;;5123860;28;20232;-79
2023/10/15 02:14:47;;;;;;;10.17;9.87;;;8.00;99.90;;;;;;5123410;28;20231;-78
2023/10/15 02:17:18;;;;;;;10.37;10.07;;;7.90;99.90;;;;;;5123626;28;20230;-79
2023/10/15 02:19:47;;;;;;;10.13;9.83;;;7.90;99.90;;;;;;5125210;28;20229;-79
2023/10/15 02:22:14;;;;;;;10.50;10.20;;;7.90;99.90;;;;;;5122601;28;20276;-78
2023/10/15 02:24:46;;;;;;;10.30;10.00;;;7.80;99.90;;;;;;5122903;28;20232;-79
2023/10/15 02:27:18;;;;;;;10.13;9.83;;;7.80;99.90;;;;;;5122897;28;20298;-79
2023/10/15 02:29:49;;;;;;;10.10;9.80;;;7.70;99.90;;;;;;5123415;28;20233;-78
2023/10/15 02:32:28;;;;;;;10.20;9.90;;;7.70;99.90;;;;;;5124128;28;20239;-77
2023/10/15 02:34:57;;;;;;;10.30;10.00;;;7.70;99.90;;;;;;5122174;27;20315;-79
2023/10/15 02:37:28;;;;;;;10.10;9.80;;;7.60;99.90;;;;;;5122530;28;20250;-79
2023/10/15 02:39:57;;;;;;;10.07;9.77;;;7.60;99.90;;;;;;5122483;28;20677;-79
2023/10/15 02:42:33;;;;;;;10.33;10.03;;;7.60;99.90;;;;;;5121942;28;20217;-80
2023/10/15 02:45:00;;;;;;;10.40;10.10;;;7.50;99.90;;;;;;5123375;28;20224;-78
2023/10/15 02:47:31;;;;;;;10.47;10.17;;;7.50;99.90;;;;;;5123326;28;20263;-79
2023/10/15 02:50:03;;;;;;;10.40;10.10;;;7.50;99.90;;;;;;5122318;28;21132;-79
2023/10/15 02:52:42;;;;;;;10.33;10.03;;;7.40;99.90;;;;;;5121942;28;20225;-78
2023/10/15 02:55:11;;;;;;;10.37;10.07;;;7.40;99.90;;;;;;5122527;28;20286;-79
2023/10/15 02:57:42;;;;;;;10.50;10.20;;;7.30;99.90;;;;;;5121625;28;20243;-78
2023/10/15 03:00:15;;;;;;;10.50;10.20;;;7.30;99.90;;;;;;5121514;28;20324;-78
2023/10/15 03:02:47;;;;;;;10.60;10.30;;;7.30;99.90;;;;;;5122038;28;20209;-79
2023/10/15 03:05:16;;;;;;;10.30;10.00;;;7.30;99.90;;;;;;5122316;28;20294;-78
2023/10/15 03:07:44;;;;;;;10.50;10.20;;;7.20;99.90;;;;;;5121320;28;20239;-79
2023/10/15 03:10:12;;;;;;;10.43;10.13;;;7.20;99.90;;;;;;5121173;28;20232;-79
2023/10/15 03:12:45;;;;;;;10.40;10.10;;;7.20;99.90;;;;;;5121960;28;20268;-79
2023/10/15 03:15:15;;;;;;;10.33;10.03;;;7.20;99.90;;;;;;5121546;28;20303;-79
2023/10/15 03:17:43;;;;;;;10.23;9.93;;;7.10;99.90;;;;;;5121841;28;20224;-79
2023/10/15 03:20:24;;;;;;;10.23;9.93;;;7.10;99.90;;;;;;5121334;28;20232;-79
2023/10/15 03:22:58;;;;;;;10.27;9.97;;;7.00;99.90;;;;;;5121059;28;20209;-79
2023/10/15 03:25:26;;;;;;;10.17;9.87;;;7.00;99.90;;;;;;5122145;28;20233;-79
2023/10/15 03:28:00;;;;;;;10.10;9.80;;;7.00;99.90;;;;;;5121670;28;20237;-79
2023/10/15 03:30:33;;;;;;;10.67;10.37;;;7.00;99.90;;;;;;5121678;28;20675;-78
2023/10/15 03:33:01;;;;;;;10.13;9.83;;;7.00;99.90;;;;;;5121923;28;20233;-79
2023/10/15 03:35:32;;;;;;;10.30;10.00;;;7.10;99.90;;;;;;5122545;28;20233;-79
2023/10/15 03:38:06;;;;;;;10.30;10.00;;;7.00;99.90;;;;;;5124188;27;20241;-79
2023/10/15 03:40:41;;;;;;;10.30;10.00;;;7.00;99.90;;;;;;5121745;28;20247;-79
2023/10/15 03:43:15;;;;;;;10.30;10.00;;;7.00;99.90;;;;;;5121646;28;20224;-79
2023/10/15 03:45:50;;;;;;;10.10;9.80;;;6.90;99.90;;;;;;5123160;27;20235;-79
2023/10/15 03:48:18;;;;;;;10.30;10.00;;;7.00;99.90;;;;;;5126227;28;20247;-79
2023/10/15 03:50:54;;;;;;;10.13;9.83;;;7.00;99.90;;;;;;5125541;28;20331;-79
2023/10/15 03:53:23;;;;;;;10.40;10.10;;;7.00;99.90;;;;;;5125339;28;20232;-79
2023/10/15 03:55:50;;;;;;;10.17;9.87;;;6.90;99.90;;;;;;5125296;28;20260;-79
2023/10/15 03:58:21;;;;;;;10.27;9.97;;;6.90;99.90;;;;;;5125906;28;20231;-80
2023/10/15 04:00:56;;;;;;;10.30;10.00;;;6.90;99.90;;;;;;5125528;28;20236;-80
2023/10/15 04:03:28;;;;;;;10.20;9.90;;;6.90;99.90;;;;;;5125460;28;20280;-79
2023/10/15 04:06:00;;;;;;;10.20;9.90;;;6.80;99.90;;;;;;5125270;28;20278;-78
2023/10/15 04:08:30;;;;;;;10.17;9.87;;;6.80;99.90;;;;;;5124895;28;20224;-80
2023/10/15 04:10:58;;;;;;;10.00;9.70;;;6.80;99.90;;;;;;5125224;28;20236;-79
2023/10/15 04:13:28;;;;;;;10.27;9.97;;;6.80;99.90;;;;;;5125335;28;20244;-79
2023/10/15 04:15:56;;;;;;;10.30;10.00;;;6.90;99.90;;;;;;5125494;28;20245;-79
2023/10/15 04:18:24;;;;;;;10.13;9.83;;;6.80;99.90;;;;;;5125808;28;20233;-79
2023/10/15 04:20:55;;;;;;;10.30;10.00;;;6.80;99.90;;;;;;5126107;28;20229;-79
2023/10/15 04:23:31;;;;;;;10.00;9.70;;;6.90;99.90;;;;;;5126375;28;20284;-79
2023/10/15 04:26:02;;;;;;;10.23;9.93;;;6.90;99.90;;;;;;5127919;28;20299;-79
2023/10/15 04:28:31;;;;;;;10.00;9.70;;;6.90;99.90;;;;;;5125898;28;20221;-78
2023/10/15 04:30:58;;;;;;;10.13;9.83;;;6.90;99.90;;;;;;5124579;28;20228;-79
2023/10/15 04:33:27;;;;;;;10.10;9.80;;;6.90;99.90;;;;;;5125316;28;20232;-79
2023/10/15 04:35:56;;;;;;;10.00;9.70;;;6.90;99.90;;;;;;5126390;28;20293;-79
2023/10/15 04:38:28;;;;;;;10.00;9.70;;;6.90;99.90;;;;;;5124883;28;20256;-78
2023/10/15 04:41:03;;;;;;;10.10;9.80;;;6.80;99.90;;;;;;5124976;28;20241;-79
2023/10/15 04:43:41;;;;;;;10.00;9.70;;;6.80;99.90;;;;;;5124552;28;20236;-79
2023/10/15 04:46:08;;;;;;;10.00;9.70;;;6.80;99.90;;;;;;5125015;28;20228;-79
2023/10/15 04:48:37;;;;;;;10.00;9.70;;;6.80;99.90;;;;;;5124441;28;20296;-79
2023/10/15 04:51:12;;;;;;;9.90;9.60;;;6.80;99.90;;;;;;5124993;28;20228;-79
2023/10/15 04:53:42;;;;;;;10.10;9.80;;;6.80;99.90;;;;;;5124450;28;20231;-79
2023/10/15 04:56:09;;;;;;;10.00;9.70;;;6.80;99.90;;;;;;5125141;28;20235;-79
2023/10/15 04:58:38;;;;;;;10.00;9.70;;;6.80;99.90;;;;;;5124884;28;20225;-79
2023/10/15 05:01:06;;;;;;;10.10;9.80;;;6.80;99.90;;;;;;5123422;28;20232;-80
2023/10/15 05:03:34;;;;;;;10.10;9.80;;;6.80;99.90;;;;;;5124925;28;20236;-79
2023/10/15 05:06:02;;;;;;;10.20;9.90;;;6.90;99.90;;;;;;5125484;28;20229;-79
2023/10/15 05:08:30;;;;;;;10.17;9.87;;;6.80;99.90;;;;;;5124571;28;20327;-79
2023/10/15 05:10:57;;;;;;;10.03;9.73;;;6.80;99.90;;;;;;5124051;28;20243;-79
2023/10/15 05:13:26;;;;;;;10.10;9.80;;;6.80;99.90;;;;;;5124596;28;20232;-79
2023/10/15 05:15:56;;;;;;;10.17;9.87;;;6.80;99.90;;;;;;5124320;28;20224;-79
2023/10/15 05:18:23;;;;;;;10.10;9.80;;;6.80;99.90;;;;;;5124380;28;20255;-79
2023/10/15 05:20:51;;;;;;;10.00;9.70;;;6.80;99.90;;;;;;5124408;28;20229;-79
2023/10/15 05:23:20;;;;;;;10.10;9.80;;;6.80;99.90;;;;;;5124038;28;20239;-79
2023/10/15 05:25:49;;;;;;;10.10;9.80;;;6.80;99.90;;;;;;5125120;28;20278;-80
2023/10/15 05:28:18;;;;;;;10.07;9.77;;;6.90;99.90;;;;;;5124024;28;20251;-79
2023/10/15 05:30:45;;;;;;;10.10;9.80;;;6.90;99.90;;;;;;5123487;28;20335;-79
2023/10/15 05:33:16;;;;;;;10.30;10.00;;;6.90;99.90;;;;;;5123683;28;20300;-78
2023/10/15 05:35:47;;;;;;;10.20;9.90;;;6.90;99.90;;;;;;5124482;28;20233;-80
2023/10/15 05:38:16;;;;;;;10.10;9.80;;;6.90;99.90;;;;;;5124298;28;20284;-80
2023/10/15 05:40:44;;;;;;;10.10;9.80;;;6.90;99.90;;;;;;5129772;28;20261;-79
2023/10/15 05:43:11;;;;;;;10.00;9.70;;;6.90;99.90;;;;;;5131244;28;20239;-79
2023/10/15 05:45:39;;;;;;;10.17;9.87;;;6.90;99.90;;;;;;5131803;28;20306;-79
2023/10/15 05:48:07;;;;;;;10.07;9.77;;;6.90;99.90;;;;;;5128921;28;20225;-79
2023/10/15 05:50:37;;;;;;;10.20;9.90;;;7.00;99.90;;;;;;5123265;28;20256;-79
2023/10/15 05:53:06;;;;;;;9.90;9.60;;;6.90;99.90;;;;;;5122886;28;20221;-78
2023/10/15 05:55:33;;;;;;;10.10;9.80;;;6.90;99.90;;;;;;5123332;28;20286;-79
2023/10/15 05:58:07;;;;;;;10.17;9.87;;;6.90;99.90;;;;;;5124007;28;20225;-79
2023/10/15 06:00:39;;;;;;;10.30;10.00;;;6.90;99.90;;;;;;5121518;28;20235;-80
2023/10/15 06:06:01;;;;;;;10.03;9.73;;;7.00;99.90;;;;;;5110903;28;20221;-86
2023/10/15 06:08:30;;;;;;;10.10;9.80;;;7.00;99.90;;;;;;5111195;28;20244;-85
2023/10/15 06:11:00;;;;;;;9.80;9.50;;;7.00;99.90;;;;;;5117325;27;20228;-86
2023/10/15 06:13:28;;;;;;;9.80;9.50;;;7.00;99.90;;;;;;5139619;27;20273;-86
2023/10/15 06:16:07;;;;;;;9.90;9.60;;;7.10;99.90;;;;;;5203029;22;20328;-85
2023/10/15 06:18:36;;;;;;;10.07;9.77;;;7.10;99.90;;;;;;5119970;27;20221;-85
2023/10/15 06:23:52;;;;;;;10.00;9.70;;;7.20;99.90;;;;;;5214834;22;20209;-85
2023/10/15 06:26:24;;;;;;;9.93;9.63;;;7.20;99.90;;;;;;5117273;27;20240;-85
2023/10/15 06:28:52;;;;;;;9.90;9.60;;;7.30;99.90;;;;;;5115845;28;20340;-85
2023/10/15 06:31:23;;;;;;;9.87;9.57;;;7.20;99.90;;;;;;5110701;28;20226;-86
2023/10/15 06:33:51;;;;;;;9.93;9.63;;;7.30;99.90;;;;;;5128742;28;20228;-86
2023/10/15 06:40:15;;;;;;;9.93;9.63;;;7.40;99.90;;;;;;5129434;28;20232;-89
2023/10/15 06:46:40;;;;;;;;;;;;;;;;;;;;;
2023/10/15 07:31:38;;;;;;;;;;;;;;;;;;;;;
2023/10/15 08:18:12;;;;;;;9.80;9.50;;;9.60;99.90;;;;;;5086958;28;20302;-89
2023/10/15 08:30:04;;;;;;;9.73;9.43;;;9.50;99.90;;;;;;5007533;28;20273;-88
2023/10/15 08:33:04;;;;;;;9.50;9.20;;;9.50;99.90;;;;;;5042383;28;20269;-87
2023/10/15 08:35:32;;;;;;;9.67;9.37;;;9.50;99.90;;;;;;5082298;28;20229;-87
2023/10/15 08:49:01;;;;;;;9.70;9.40;;;9.40;99.90;;;;;;5033625;28;20254;-88
2023/10/15 09:14:04;;;;;;;;;;;;;;;;;;;;;
2023/10/15 09:16:52;;;;;;;9.73;9.43;;;11.60;99.90;;;;;;5026621;28;20233;-89
2023/10/15 09:22:24;;;;;;;10.40;10.10;;;11.60;99.90;;;;;;5034233;28;20244;-89
2023/10/15 09:25:30;;;;;;;10.10;9.80;;;11.30;99.90;;;;;;5494754;22;20223;-90
2023/10/15 10:30:50;;;;;;;9.67;9.37;;;13.40;99.90;;;;;;5087572;28;20293;-88
2023/10/15 10:34:20;;;;;;;9.73;9.43;;;13.70;99.90;;;;;;5087571;28;20312;-87
2023/10/15 10:39:48;;;;;;;9.60;9.30;;;13.60;99.90;;;;;;5046498;28;20317;-87
2023/10/15 10:42:26;;;;;;;9.90;9.60;;;13.10;99.90;;;;;;5086133;28;20333;-86
2023/10/15 10:49:17;;;;;;;9.73;9.43;;;12.00;99.90;;;;;;5098356;28;20267;-88
2023/10/15 10:52:39;;;;;;;9.87;9.57;;;11.80;99.90;;;;;;5099670;28;20243;-87
2023/10/15 10:55:38;;;;;;;9.63;9.33;;;11.60;99.90;;;;;;5085365;28;20228;-89
2023/10/15 10:58:24;;;;;;;9.90;9.60;;;11.50;99.90;;;;;;5084619;28;20330;-89
2023/10/15 11:01:02;;;;;;;9.90;9.60;;;11.40;99.90;;;;;;5087179;28;20256;-87
2023/10/15 11:03:34;;;;;;;9.90;9.60;;;11.70;99.90;;;;;;5092031;28;20238;-88
2023/10/15 11:06:18;;;;;;;9.80;9.50;;;12.30;99.90;;;;;;5086757;28;20223;-89
2023/10/15 11:14:49;;;;;;;9.80;9.50;;;13.80;99.90;;;;;;5092231;28;20242;-87
2023/10/15 11:25:56;;;;;;;10.10;9.80;;;14.20;99.90;;;;;;5086501;28;20240;-87
2023/10/15 11:28:26;;;;;;;10.00;9.70;;;13.50;99.90;;;;;;5085035;28;20241;-85
2023/10/15 11:36:38;;;;;;;9.93;9.63;;;12.40;99.90;;;;;;5087440;28;20218;-88
2023/10/15 11:39:18;;;;;;;10.00;9.70;;;12.30;99.90;;;;;;5087995;28;20218;-87
2023/10/15 11:41:57;;;;;;;9.93;9.63;;;12.20;99.90;;;;;;5087907;28;20293;-87
2023/10/15 11:47:47;;;;;;;;;;;;;;;;;;;;;
2023/10/15 11:50:55;;;;;;;10.07;9.77;;;11.30;99.90;;;;;;5087068;28;20256;-87
2023/10/15 11:54:21;;;;;;;;;;;;;;;;;;;;;
2023/10/15 12:04:26;;;;;;;10.03;9.73;;;10.10;99.90;;;;;;5037493;28;20290;-87
2023/10/15 12:06:57;;;;;;;10.00;9.70;;;9.80;99.90;;;;;;5071838;22;20251;-82
2023/10/15 12:09:25;;;;;;;9.87;9.57;;;9.80;99.90;;;;;;5067523;28;20284;-81
2023/10/15 12:11:55;;;;;;;9.90;9.60;;;9.80;99.90;;;;;;5067786;28;20288;-82
2023/10/15 12:14:33;;;;;;;9.90;9.60;;;9.70;99.90;;;;;;5067985;28;20273;-82
2023/10/15 12:17:04;;;;;;;9.87;9.57;;;9.70;99.90;;;;;;5061482;28;20246;-83
2023/10/15 12:19:31;;;;;;;9.77;9.47;;;9.80;99.90;;;;;;5068064;28;20246;-84
2023/10/15 12:22:04;;;;;;;10.10;9.80;;;10.00;99.90;;;;;;5067966;28;20222;-83
2023/10/15 12:24:35;;;;;;;9.77;9.47;;;10.50;99.90;;;;;;5067726;28;20230;-81
2023/10/15 12:27:02;;;;;;;10.10;9.80;;;11.30;99.90;;;;;;5068036;28;20218;-81
2023/10/15 12:29:29;;;;;;;10.23;9.93;;;11.90;99.90;;;;;;5067185;28;20291;-82
2023/10/15 12:31:58;;;;;;;10.10;9.80;;;12.40;99.90;;;;;;5067915;28;20281;-81
2023/10/15 12:34:29;;;;;;;9.83;9.53;;;13.00;99.90;;;;;;5067678;28;20223;-81
2023/10/15 12:36:58;;;;;;;10.00;9.70;;;13.50;99.90;;;;;;5067387;28;20234;-82
2023/10/15 12:39:29;;;;;;;10.20;9.90;;;13.70;99.90;;;;;;5068323;28;20254;-81
2023/10/15 12:41:58;;;;;;;10.23;9.93;;;14.00;99.90;;;;;;5067267;28;20251;-81
2023/10/15 12:44:39;;;;;;;10.10;9.80;;;14.40;99.90;;;;;;5066164;28;20265;-80
2023/10/15 12:47:08;;;;;;;10.10;9.80;;;14.90;99.90;;;;;;5066081;28;20242;-80
2023/10/15 12:49:36;;;;;;;10.18;9.88;;;15.40;99.90;;;;;;5066628;28;20230;-81
2023/10/15 12:52:04;;;;;;;10.23;9.93;;;15.20;99.90;;;;;;5066257;28;20268;-80
2023/10/15 12:54:34;;;;;;;10.10;9.80;;;15.00;99.90;;;;;;5065703;28;20250;-82
2023/10/15 12:57:04;;;;;;;10.65;10.35;;;14.90;99.90;;;;;;5065509;28;20245;-81
2023/10/15 12:59:32;;;;;;;10.65;10.35;;;14.50;99.90;;;;;;5061235;28;20235;-82
2023/10/15 13:02:01;;;;;;;10.13;9.83;;;13.70;99.90;;;;;;5046380;28;20231;-80
2023/10/15 13:04:30;;;;;;;10.10;9.80;;;13.10;99.90;;;;;;5046302;28;20323;-82
2023/10/15 13:06:58;;;;;;;10.00;9.70;;;12.60;99.90;;;;;;5045457;28;20223;-82
2023/10/15 13:09:32;;;;;;;10.17;9.87;;;12.40;99.90;;;;;;5045774;28;20288;-82
2023/10/15 13:12:06;;;;;;;10.10;9.80;;;12.30;99.90;;;;;;5046766;28;20239;-82
2023/10/15 13:14:47;;;;;;;10.37;10.07;;;11.90;99.90;;;;;;5045365;28;20254;-80
2023/10/15 13:17:16;;;;;;;9.87;9.57;;;11.50;99.90;;;;;;5046660;28;20247;-82
2023/10/15 13:19:45;;;;;;;9.90;9.60;;;11.10;99.90;;;;;;5048861;28;20266;-83
2023/10/15 13:22:16;;;;;;;9.77;9.47;;;11.00;99.90;;;;;;5061338;28;20241;-82
2023/10/15 13:24:55;;;;;;;9.90;9.60;;;10.70;99.90;;;;;;5069940;28;20223;-82
2023/10/15 13:27:26;;;;;;;9.90;9.60;;;10.70;99.90;;;;;;5067080;28;20215;-81
2023/10/15 13:29:53;;;;;;;9.77;9.47;;;10.70;99.90;;;;;;5067182;28;20290;-82
2023/10/15 13:32:22;;;;;;;9.70;9.40;;;11.10;99.90;;;;;;5067466;28;20326;-81
2023/10/15 13:34:50;;;;;;;9.80;9.50;;;11.40;99.90;;;;;;5066689;28;20279;-83
2023/10/15 13:37:17;;;;;;;10.00;9.70;;;11.90;99.90;;;;;;5065893;28;20242;-81
2023/10/15 13:39:47;;;;;;;9.50;9.20;;;12.30;99.90;;;;;;5067106;28;20237;-82
2023/10/15 13:42:14;;;;;;;9.70;9.40;;;12.30;99.90;;;;;;5066859;28;20242;-82
2023/10/15 13:44:43;;;;;;;9.73;9.43;;;12.30;99.90;;;;;;5066137;28;20230;-82
2023/10/15 13:47:10;;;;;;;9.53;9.23;;;12.40;99.90;;;;;;5065800;28;20226;-81
2023/10/15 13:49:41;;;;;;;9.67;9.37;;;12.60;99.90;;;;;;5065838;28;20294;-82
2023/10/15 13:52:09;;;;;;;10.03;9.73;;;12.40;99.90;;;;;;5065518;28;20232;-81
2023/10/15 13:54:39;;;;;;;10.07;9.77;;;12.40;99.90;;;;;;5065090;28;20229;-82
2023/10/15 13:57:08;;;;;;;10.00;9.70;;;12.90;99.90;;;;;;5065493;28;20260;-82
2023/10/15 13:59:37;;;;;;;9.63;9.33;;;13.10;99.90;;;;;;5069232;28;20326;-82
2023/10/15 14:02:18;;;;;;;9.90;9.60;;;13.30;99.90;;;;;;5066589;28;20246;-82
2023/10/15 14:04:45;;;;;;;9.90;9.60;;;13.40;99.90;;;;;;5066251;28;20282;-81
2023/10/15 14:07:14;;;;;;;10.07;9.77;;;13.70;99.90;;;;;;5064672;28;20223;-82
2023/10/15 14:09:43;;;;;;;10.05;9.75;;;14.10;99.90;;;;;;5065864;28;20234;-82
2023/10/15 14:12:12;;;;;;;9.98;9.68;;;14.30;99.90;;;;;;5065858;28;20223;-82
2023/10/15 14:14:43;;;;;;;10.20;9.90;;;14.20;99.90;;;;;;5065604;28;20238;-82
2023/10/15 14:17:14;;;;;;;10.05;9.75;;;14.30;99.90;;;;;;5064861;28;20266;-82
2023/10/15 14:19:43;;;;;;;9.90;9.60;;;14.40;99.90;;;;;;5065140;28;20298;-81
2023/10/15 14:22:11;;;;;;;9.90;9.60;;;14.20;99.90;;;;;;5065802;28;20258;-82
2023/10/15 14:24:38;;;;;;;10.20;9.90;;;14.50;99.90;;;;;;5064870;28;20238;-81
2023/10/15 14:27:07;;;;;;;10.20;9.90;;;14.90;99.90;;;;;;5064660;28;20219;-82
2023/10/15 14:29:34;;;;;;;10.30;10.00;;;15.30;99.90;;;;;;5064006;28;20261;-82
2023/10/15 14:32:01;;;;;;;10.02;9.73;;;15.70;99.90;;;;;;5065007;28;20227;-82
2023/10/15 14:34:33;;;;;;;9.68;9.38;;;16.20;99.90;;;;;;5065134;28;20294;-80
2023/10/15 14:37:01;;;;;;;9.52;9.23;;;16.40;99.90;;;;;;5064150;28;20230;-81
2023/10/15 14:39:41;;;;;;;9.75;9.45;;;16.10;99.90;;;;;;5064921;28;20253;-81
2023/10/15 14:42:09;;;;;;;9.80;9.50;;;16.10;99.90;;;;;;5065058;28;20234;-82
2023/10/15 14:44:38;;;;;;;10.20;9.90;;;15.70;99.90;;;;;;5064711;28;20235;-81
2023/10/15 14:47:08;;;;;;;9.82;9.52;;;15.20;99.90;;;;;;5064999;28;20230;-82
2023/10/15 14:49:40;;;;;;;10.10;9.80;;;15.20;99.90;;;;;;5065693;28;20298;-80
2023/10/15 14:52:07;;;;;;;10.07;9.77;;;15.40;99.90;;;;;;5065471;28;20281;-82
2023/10/15 14:54:36;;;;;;;10.13;9.82;;;15.10;99.90;;;;;;5064498;28;20345;-81
2023/10/15 14:57:05;;;;;;;10.00;9.70;;;14.90;99.90;;;;;;5064146;28;20237;-82
2023/10/15 14:59:33;;;;;;;9.88;9.57;;;14.60;99.90;;;;;;5064585;28;20258;-82
2023/10/15 15:02:05;;;;;;;9.75;9.45;;;14.10;99.90;;;;;;5064456;28;20242;-81
2023/10/15 15:04:35;;;;;;;9.80;9.50;;;13.70;99.90;;;;;;5065000;28;20241;-82
2023/10/15 15:07:03;;;;;;;9.87;9.57;;;13.20;99.90;;;;;;5063788;28;20239;-83
2023/10/15 15:09:32;;;;;;;10.00;9.70;;;12.60;99.90;;;;;;5065615;28;20230;-83
2023/10/15 15:12:01;;;;;;;9.80;9.50;;;12.30;99.90;;;;;;5068256;28;20257;-82
2023/10/15 15:14:30;;;;;;;9.70;9.40;;;12.00;99.90;;;;;;5066288;28;20249;-82
2023/10/15 15:17:01;;;;;;;9.60;9.30;;;11.90;99.90;;;;;;5065300;28;20235;-81
2023/10/15 15:19:29;;;;;;;9.50;9.20;;;12.10;99.90;;;;;;5065344;28;20226;-83
2023/10/15 15:22:04;;;;;;;9.70;9.40;;;12.20;99.90;;;;;;5064168;28;20234;-82
2023/10/15 15:24:33;;;;;;;10.17;9.87;;;12.30;99.90;;;;;;5064569;28;20237;-83
2023/10/15 15:27:00;;;;;;;9.50;9.20;;;12.40;99.90;;;;;;5065428;28;20227;-82
2023/10/15 15:29:28;;;;;;;8.90;8.70;;;12.70;99.90;;;;;;5064373;28;20241;-82
2023/10/15 15:31:57;;;;;;;9.40;9.10;;;12.80;99.90;;;;;;5065548;28;20227;-81
2023/10/15 15:34:37;;;;;;;9.27;8.97;;;12.50;99.90;;;;;;5064991;28;20296;-83
2023/10/15 15:37:07;;;;;;;9.67;9.37;;;12.10;99.90;;;;;;5065024;28;20230;-82
2023/10/15 15:39:43;;;;;;;9.10;8.80;;;12.20;99.90;;;;;;5064870;28;20257;-82
2023/10/15 15:42:15;;;;;;;9.27;8.97;;;12.20;99.90;;;;;;5065187;28;20262;-82
2023/10/15 15:44:43;;;;;;;9.57;9.27;;;12.30;99.90;;;;;;5067958;28;20329;-82
2023/10/15 15:47:12;;;;;;;9.50;9.20;;;12.30;99.90;;;;;;5069024;28;20258;-83
2023/10/15 15:49:51;;;;;;;9.47;9.17;;;11.90;99.90;;;;;;5068023;28;20265;-82
2023/10/15 15:52:27;;;;;;;9.57;9.27;;;11.60;99.90;;;;;;5068073;28;20238;-82
2023/10/15 15:54:58;;;;;;;9.40;9.10;;;11.50;99.90;;;;;;5068491;28;20249;-82
2023/10/15 15:57:29;;;;;;;9.37;9.07;;;11.30;99.90;;;;;;5068511;28;20321;-83
2023/10/15 15:59:57;;;;;;;9.33;9.03;;;11.30;99.90;;;;;;5068004;28;20253;-83
2023/10/15 16:02:29;;;;;;;9.20;8.90;;;11.20;99.90;;;;;;5067913;28;20266;-82
2023/10/15 16:04:58;;;;;;;9.60;9.30;;;11.20;99.90;;;;;;5067342;28;20235;-82
2023/10/15 16:07:28;;;;;;;9.40;9.10;;;11.10;99.90;;;;;;5067292;28;20247;-82
2023/10/15 16:09:55;;;;;;;9.50;9.20;;;11.00;99.90;;;;;;5070480;28;20235;-83
2023/10/15 16:12:23;;;;;;;9.77;9.47;;;10.80;99.90;;;;;;5069396;28;20243;-83
2023/10/15 16:14:53;;;;;;;9.33;9.03;;;10.70;99.90;;;;;;5070706;28;20278;-82
2023/10/15 16:17:23;;;;;;;9.87;9.57;;;10.60;99.90;;;;;;5069079;28;20297;-84
2023/10/15 16:19:52;;;;;;;9.40;9.10;;;10.50;99.90;;;;;;5066740;28;20246;-81
2023/10/15 16:22:21;;;;;;;9.70;9.40;;;10.40;99.90;;;;;;5057873;28;20242;-81
2023/10/15 16:24:55;;;;;;;9.40;9.10;;;10.40;99.90;;;;;;5056326;28;20231;-81
2023/10/15 16:27:24;;;;;;;9.40;9.10;;;10.30;99.90;;;;;;5048126;28;20233;-85
2023/10/15 16:29:52;;;;;;;9.27;8.97;;;10.20;99.90;;;;;;5058985;28;20261;-82
2023/10/15 16:32:19;;;;;;;9.50;9.20;;;10.10;99.90;;;;;;5047260;28;20259;-81
2023/10/15 16:34:46;;;;;;;9.80;9.50;;;10.00;99.90;;;;;;5060816;28;20378;-81
2023/10/15 16:37:13;;;;;;;9.80;9.50;;;10.00;99.90;;;;;;5066699;28;20282;-81
2023/10/15 16:39:41;;;;;;;9.57;9.27;;;10.10;99.90;;;;;;5067545;28;20349;-81
2023/10/15 16:42:12;;;;;;;9.67;9.37;;;10.10;99.90;;;;;;5067929;28;20245;-81
2023/10/15 16:44:40;;;;;;;9.80;9.50;;;10.20;99.90;;;;;;5065918;28;20282;-80
2023/10/15 16:47:08;;;;;;;9.50;9.20;;;10.20;99.90;;;;;;5066917;28;20253;-81
2023/10/15 16:49:38;;;;;;;9.83;9.53;;;10.20;99.90;;;;;;5066618;28;20290;-81
2023/10/15 16:52:08;;;;;;;9.57;9.27;;;10.10;99.90;;;;;;5067670;28;20251;-82
2023/10/15 16:54:35;;;;;;;9.70;9.40;;;10.00;99.90;;;;;;5066493;28;20281;-81
2023/10/15 16:57:08;;;;;;;9.67;9.37;;;9.80;99.90;;;;;;5067292;28;20266;-82
2023/10/15 16:59:38;;;;;;;9.50;9.20;;;9.70;99.90;;;;;;5069120;28;20235;-81
2023/10/15 17:02:06;;;;;;;9.70;9.40;;;9.60;99.90;;;;;;5068072;28;20235;-81
2023/10/15 17:04:35;;;;;;;9.70;9.40;;;9.50;99.90;;;;;;5069238;28;20231;-80
2023/10/15 17:07:04;;;;;;;9.60;9.30;;;9.40;99.90;;;;;;5068954;28;20286;-81
2023/10/15 17:09:34;;;;;;;9.53;9.23;;;9.30;99.90;;;;;;5068119;28;20226;-82
2023/10/15 17:12:03;;;;;;;9.70;9.40;;;9.30;99.90;;;;;;5067670;28;20277;-82
2023/10/15 17:14:31;;;;;;;9.90;9.60;;;9.30;99.90;;;;;;5066841;28;20230;-81
2023/10/15 17:17:04;;;;;;;9.50;9.20;;;9.30;99.90;;;;;;5067259;28;20215;-82
2023/10/15 17:19:33;;;;;;;9.30;9.00;;;9.20;99.90;;;;;;5067082;28;20238;-82